sensor_id;sensor_type;location;lat;lon;timestamp;P1;durP1;ratioP1;P2;durP2;ratioP2
5549;SDS011;2798;42.716;23.256;2023-07-13T00:01:12;6.70;;;4.70;;
5549;SDS011;2798;42.716;23.256;2023-07-13T00:03:41;6.50;;;4.60;;
5549;SDS011;2798;42.716;23.256;2023-07-13T00:06:07;11.17;;;4.63;;
5549;SDS011;2798;42.716;23.256;2023-07-13T00:08:33;6.17;;;4.70;;
5549;SDS011;2798;42.716;23.256;2023-07-13T00:11:02;10.73;;;5.10;;
5549;SDS011;2798;42.716;23.256;2023-07-13T00:13:28;11.83;;;4.50;;
5549;SDS011;2798;42.716;23.256;2023-07-13T00:15:56;8.90;;;4.30;;
5549;SDS011;2798;42.716;23.256;2023-07-13T00:18:22;10.73;;;5.07;;
5549;SDS011;2798;42.716;23.256;2023-07-13T00:20:48;8.30;;;4.53;;
5549;SDS011;2798;42.716;23.256;2023-07-13T00:23:13;10.60;;;5.00;;
5549;SDS011;2798;42.716;23.256;2023-07-13T00:25:39;5.20;;;4.70;;
5549;SDS011;2798;42.716;23.256;2023-07-13T00:28:05;8.90;;;5.20;;
5549;SDS011;2798;42.716;23.256;2023-07-13T00:30:30;8.13;;;5.10;;
5549;SDS011;2798;42.716;23.256;2023-07-13T00:32:56;5.17;;;4.67;;
5549;SDS011;2798;42.716;23.256;2023-07-13T00:35:21;7.40;;;4.80;;
5549;SDS011;2798;42.716;23.256;2023-07-13T00:37:47;7.20;;;4.97;;
5549;SDS011;2798;42.716;23.256;2023-07-13T00:40:13;7.27;;;4.90;;
5549;SDS011;2798;42.716;23.256;2023-07-13T00:42:39;10.00;;;5.47;;
5549;SDS011;2798;42.716;23.256;2023-07-13T00:47:31;6.60;;;4.83;;
5549;SDS011;2798;42.716;23.256;2023-07-13T00:49:57;5.97;;;5.07;;
5549;SDS011;2798;42.716;23.256;2023-07-13T00:52:23;9.40;;;4.97;;
5549;SDS011;2798;42.716;23.256;2023-07-13T00:54:49;8.00;;;5.43;;
5549;SDS011;2798;42.716;23.256;2023-07-13T00:57:16;7.60;;;4.90;;
5549;SDS011;2798;42.716;23.256;2023-07-13T00:59:46;6.20;;;5.20;;
5549;SDS011;2798;42.716;23.256;2023-07-13T01:02:15;12.40;;;5.67;;
5549;SDS011;2798;42.716;23.256;2023-07-13T01:04:41;7.77;;;5.00;;
5549;SDS011;2798;42.716;23.256;2023-07-13T01:07:09;5.83;;;5.23;;
5549;SDS011;2798;42.716;23.256;2023-07-13T01:09:35;8.17;;;5.70;;
5549;SDS011;2798;42.716;23.256;2023-07-13T01:12:01;13.07;;;5.33;;
5549;SDS011;2798;42.716;23.256;2023-07-13T01:14:28;8.53;;;5.10;;
5549;SDS011;2798;42.716;23.256;2023-07-13T01:16:53;7.80;;;5.23;;
5549;SDS011;2798;42.716;23.256;2023-07-13T01:21:49;7.90;;;6.07;;
5549;SDS011;2798;42.716;23.256;2023-07-13T01:24:15;5.40;;;4.60;;
5549;SDS011;2798;42.716;23.256;2023-07-13T01:26:40;9.10;;;4.93;;
5549;SDS011;2798;42.716;23.256;2023-07-13T01:29:06;8.90;;;5.20;;
5549;SDS011;2798;42.716;23.256;2023-07-13T01:31:32;6.80;;;4.70;;
5549;SDS011;2798;42.716;23.256;2023-07-13T01:33:58;8.50;;;4.37;;
5549;SDS011;2798;42.716;23.256;2023-07-13T01:36:23;4.87;;;4.27;;
5549;SDS011;2798;42.716;23.256;2023-07-13T01:38:49;6.47;;;4.40;;
5549;SDS011;2798;42.716;23.256;2023-07-13T01:41:14;6.80;;;4.97;;
5549;SDS011;2798;42.716;23.256;2023-07-13T01:43:40;7.80;;;4.40;;
5549;SDS011;2798;42.716;23.256;2023-07-13T01:46:05;13.33;;;5.17;;
5549;SDS011;2798;42.716;23.256;2023-07-13T01:48:30;4.57;;;4.10;;
5549;SDS011;2798;42.716;23.256;2023-07-13T01:50:56;5.30;;;4.57;;
5549;SDS011;2798;42.716;23.256;2023-07-13T01:53:21;7.73;;;4.67;;
5549;SDS011;2798;42.716;23.256;2023-07-13T01:55:47;6.40;;;4.70;;
5549;SDS011;2798;42.716;23.256;2023-07-13T01:58:12;6.07;;;4.80;;
5549;SDS011;2798;42.716;23.256;2023-07-13T02:00:38;8.03;;;4.63;;
5549;SDS011;2798;42.716;23.256;2023-07-13T02:03:03;5.63;;;4.60;;
5549;SDS011;2798;42.716;23.256;2023-07-13T02:05:28;9.07;;;5.40;;
5549;SDS011;2798;42.716;23.256;2023-07-13T02:07:54;15.43;;;4.60;;
5549;SDS011;2798;42.716;23.256;2023-07-13T02:10:19;7.13;;;4.53;;
5549;SDS011;2798;42.716;23.256;2023-07-13T02:12:45;8.90;;;4.73;;
5549;SDS011;2798;42.716;23.256;2023-07-13T02:15:10;5.03;;;4.43;;
5549;SDS011;2798;42.716;23.256;2023-07-13T02:17:36;6.27;;;4.63;;
5549;SDS011;2798;42.716;23.256;2023-07-13T02:20:02;14.10;;;5.20;;
5549;SDS011;2798;42.716;23.256;2023-07-13T02:22:29;7.10;;;5.30;;
5549;SDS011;2798;42.716;23.256;2023-07-13T02:24:55;10.97;;;5.17;;
5549;SDS011;2798;42.716;23.256;2023-07-13T02:27:20;8.23;;;4.87;;
5549;SDS011;2798;42.716;23.256;2023-07-13T02:29:46;6.37;;;4.60;;
5549;SDS011;2798;42.716;23.256;2023-07-13T02:32:11;6.27;;;5.13;;
5549;SDS011;2798;42.716;23.256;2023-07-13T02:34:37;6.70;;;5.03;;
5549;SDS011;2798;42.716;23.256;2023-07-13T02:37:02;6.53;;;4.90;;
5549;SDS011;2798;42.716;23.256;2023-07-13T02:39:28;8.87;;;5.17;;
5549;SDS011;2798;42.716;23.256;2023-07-13T02:41:53;7.43;;;4.60;;
5549;SDS011;2798;42.716;23.256;2023-07-13T02:44:18;9.67;;;5.10;;
5549;SDS011;2798;42.716;23.256;2023-07-13T02:46:44;11.13;;;5.30;;
5549;SDS011;2798;42.716;23.256;2023-07-13T02:49:09;10.40;;;5.80;;
5549;SDS011;2798;42.716;23.256;2023-07-13T02:51:35;8.67;;;5.17;;
5549;SDS011;2798;42.716;23.256;2023-07-13T02:54:01;13.20;;;5.80;;
5549;SDS011;2798;42.716;23.256;2023-07-13T02:56:28;6.70;;;5.30;;
5549;SDS011;2798;42.716;23.256;2023-07-13T02:58:55;8.03;;;6.20;;
5549;SDS011;2798;42.716;23.256;2023-07-13T03:01:21;6.10;;;4.40;;
5549;SDS011;2798;42.716;23.256;2023-07-13T03:03:47;10.77;;;5.87;;
5549;SDS011;2798;42.716;23.256;2023-07-13T03:06:14;7.73;;;5.30;;
5549;SDS011;2798;42.716;23.256;2023-07-13T03:08:41;12.03;;;6.37;;
5549;SDS011;2798;42.716;23.256;2023-07-13T03:11:08;12.73;;;5.80;;
5549;SDS011;2798;42.716;23.256;2023-07-13T03:13:39;9.80;;;5.60;;
5549;SDS011;2798;42.716;23.256;2023-07-13T03:16:06;12.43;;;6.30;;
5549;SDS011;2798;42.716;23.256;2023-07-13T03:18:32;9.30;;;5.43;;
5549;SDS011;2798;42.716;23.256;2023-07-13T03:20:58;13.07;;;5.80;;
5549;SDS011;2798;42.716;23.256;2023-07-13T03:23:23;10.97;;;6.13;;
5549;SDS011;2798;42.716;23.256;2023-07-13T03:25:49;8.27;;;4.80;;
5549;SDS011;2798;42.716;23.256;2023-07-13T03:28:15;7.67;;;5.03;;
5549;SDS011;2798;42.716;23.256;2023-07-13T03:30:41;11.20;;;5.90;;
5549;SDS011;2798;42.716;23.256;2023-07-13T03:33:07;10.43;;;5.90;;
5549;SDS011;2798;42.716;23.256;2023-07-13T03:35:33;9.03;;;5.57;;
5549;SDS011;2798;42.716;23.256;2023-07-13T03:37:59;10.87;;;5.67;;
5549;SDS011;2798;42.716;23.256;2023-07-13T03:40:25;9.33;;;6.50;;
5549;SDS011;2798;42.716;23.256;2023-07-13T03:42:51;9.87;;;6.10;;
5549;SDS011;2798;42.716;23.256;2023-07-13T03:45:17;8.30;;;5.97;;
5549;SDS011;2798;42.716;23.256;2023-07-13T03:47:42;11.90;;;6.23;;
5549;SDS011;2798;42.716;23.256;2023-07-13T03:50:08;8.97;;;5.63;;
5549;SDS011;2798;42.716;23.256;2023-07-13T03:52:34;7.30;;;5.70;;
5549;SDS011;2798;42.716;23.256;2023-07-13T03:54:59;9.10;;;5.83;;
5549;SDS011;2798;42.716;23.256;2023-07-13T03:57:25;12.00;;;6.67;;
5549;SDS011;2798;42.716;23.256;2023-07-13T03:59:50;12.17;;;6.20;;
5549;SDS011;2798;42.716;23.256;2023-07-13T04:02:16;8.63;;;6.53;;
5549;SDS011;2798;42.716;23.256;2023-07-13T04:04:42;12.57;;;7.13;;
5549;SDS011;2798;42.716;23.256;2023-07-13T04:07:08;14.90;;;6.87;;
5549;SDS011;2798;42.716;23.256;2023-07-13T04:09:34;14.63;;;6.50;;
5549;SDS011;2798;42.716;23.256;2023-07-13T04:12:00;11.27;;;6.70;;
5549;SDS011;2798;42.716;23.256;2023-07-13T04:14:25;22.23;;;6.60;;
5549;SDS011;2798;42.716;23.256;2023-07-13T04:16:50;12.73;;;6.50;;
5549;SDS011;2798;42.716;23.256;2023-07-13T04:19:16;9.47;;;6.60;;
5549;SDS011;2798;42.716;23.256;2023-07-13T04:21:42;8.87;;;6.67;;
5549;SDS011;2798;42.716;23.256;2023-07-13T04:24:07;10.00;;;6.67;;
5549;SDS011;2798;42.716;23.256;2023-07-13T04:26:33;15.83;;;6.70;;
5549;SDS011;2798;42.716;23.256;2023-07-13T04:29:01;17.80;;;7.53;;
5549;SDS011;2798;42.716;23.256;2023-07-13T04:31:28;12.03;;;7.53;;
5549;SDS011;2798;42.716;23.256;2023-07-13T04:33:54;13.73;;;8.40;;
5549;SDS011;2798;42.716;23.256;2023-07-13T04:36:19;14.50;;;7.90;;
5549;SDS011;2798;42.716;23.256;2023-07-13T04:38:45;14.10;;;7.87;;
5549;SDS011;2798;42.716;23.256;2023-07-13T04:41:10;13.30;;;8.10;;
5549;SDS011;2798;42.716;23.256;2023-07-13T04:43:36;13.10;;;7.90;;
5549;SDS011;2798;42.716;23.256;2023-07-13T04:46:06;14.70;;;6.87;;
5549;SDS011;2798;42.716;23.256;2023-07-13T04:48:36;23.27;;;8.37;;
5549;SDS011;2798;42.716;23.256;2023-07-13T04:51:02;11.60;;;8.37;;
5549;SDS011;2798;42.716;23.256;2023-07-13T04:53:28;13.30;;;8.43;;
5549;SDS011;2798;42.716;23.256;2023-07-13T04:55:55;12.40;;;8.10;;
5549;SDS011;2798;42.716;23.256;2023-07-13T04:58:21;21.40;;;8.80;;
5549;SDS011;2798;42.716;23.256;2023-07-13T05:00:47;14.50;;;9.17;;
5549;SDS011;2798;42.716;23.256;2023-07-13T05:03:13;15.90;;;8.77;;
5549;SDS011;2798;42.716;23.256;2023-07-13T05:05:39;14.00;;;8.70;;
5549;SDS011;2798;42.716;23.256;2023-07-13T05:08:04;13.83;;;8.03;;
5549;SDS011;2798;42.716;23.256;2023-07-13T05:10:29;14.83;;;9.97;;
5549;SDS011;2798;42.716;23.256;2023-07-13T05:12:55;14.33;;;8.10;;
5549;SDS011;2798;42.716;23.256;2023-07-13T05:15:21;17.70;;;8.13;;
5549;SDS011;2798;42.716;23.256;2023-07-13T05:17:47;15.87;;;9.27;;
5549;SDS011;2798;42.716;23.256;2023-07-13T05:20:13;13.90;;;7.97;;
5549;SDS011;2798;42.716;23.256;2023-07-13T05:22:39;16.80;;;8.60;;
5549;SDS011;2798;42.716;23.256;2023-07-13T05:25:05;9.60;;;7.37;;
5549;SDS011;2798;42.716;23.256;2023-07-13T05:27:31;13.63;;;7.40;;
5549;SDS011;2798;42.716;23.256;2023-07-13T05:29:57;23.20;;;8.83;;
5549;SDS011;2798;42.716;23.256;2023-07-13T05:32:23;12.00;;;7.50;;
5549;SDS011;2798;42.716;23.256;2023-07-13T05:34:48;15.00;;;7.73;;
5549;SDS011;2798;42.716;23.256;2023-07-13T05:37:13;11.33;;;7.20;;
5549;SDS011;2798;42.716;23.256;2023-07-13T05:39:39;9.57;;;7.30;;
5549;SDS011;2798;42.716;23.256;2023-07-13T05:42:05;16.23;;;8.30;;
5549;SDS011;2798;42.716;23.256;2023-07-13T05:44:31;12.93;;;7.73;;
5549;SDS011;2798;42.716;23.256;2023-07-13T05:46:56;14.90;;;8.20;;
5549;SDS011;2798;42.716;23.256;2023-07-13T05:49:22;15.40;;;7.17;;
5549;SDS011;2798;42.716;23.256;2023-07-13T05:51:48;20.20;;;7.47;;
5549;SDS011;2798;42.716;23.256;2023-07-13T05:54:13;15.07;;;8.17;;
5549;SDS011;2798;42.716;23.256;2023-07-13T05:56:38;10.83;;;7.10;;
5549;SDS011;2798;42.716;23.256;2023-07-13T05:59:04;14.97;;;7.37;;
5549;SDS011;2798;42.716;23.256;2023-07-13T06:01:29;14.07;;;7.50;;
5549;SDS011;2798;42.716;23.256;2023-07-13T06:03:56;12.20;;;6.73;;
5549;SDS011;2798;42.716;23.256;2023-07-13T06:06:21;15.10;;;8.07;;
5549;SDS011;2798;42.716;23.256;2023-07-13T06:08:46;12.43;;;8.50;;
5549;SDS011;2798;42.716;23.256;2023-07-13T06:11:13;18.43;;;7.00;;
5549;SDS011;2798;42.716;23.256;2023-07-13T06:13:39;10.73;;;7.10;;
5549;SDS011;2798;42.716;23.256;2023-07-13T06:16:05;11.80;;;7.03;;
5549;SDS011;2798;42.716;23.256;2023-07-13T06:18:33;11.53;;;7.90;;
5549;SDS011;2798;42.716;23.256;2023-07-13T06:21:00;17.83;;;8.53;;
5549;SDS011;2798;42.716;23.256;2023-07-13T06:23:26;13.70;;;7.20;;
5549;SDS011;2798;42.716;23.256;2023-07-13T06:25:51;14.63;;;8.27;;
5549;SDS011;2798;42.716;23.256;2023-07-13T06:28:17;12.53;;;6.47;;
5549;SDS011;2798;42.716;23.256;2023-07-13T06:30:45;7.90;;;6.83;;
5549;SDS011;2798;42.716;23.256;2023-07-13T06:33:10;9.07;;;7.50;;
5549;SDS011;2798;42.716;23.256;2023-07-13T06:35:36;16.23;;;6.80;;
5549;SDS011;2798;42.716;23.256;2023-07-13T06:38:01;16.20;;;7.17;;
5549;SDS011;2798;42.716;23.256;2023-07-13T06:40:27;10.87;;;7.63;;
5549;SDS011;2798;42.716;23.256;2023-07-13T06:42:54;12.07;;;7.57;;
5549;SDS011;2798;42.716;23.256;2023-07-13T06:45:19;14.03;;;6.90;;
5549;SDS011;2798;42.716;23.256;2023-07-13T06:47:44;12.23;;;6.50;;
5549;SDS011;2798;42.716;23.256;2023-07-13T06:50:10;11.07;;;7.47;;
5549;SDS011;2798;42.716;23.256;2023-07-13T06:52:35;17.10;;;8.00;;
5549;SDS011;2798;42.716;23.256;2023-07-13T06:55:01;18.13;;;7.70;;
5549;SDS011;2798;42.716;23.256;2023-07-13T06:57:26;10.43;;;7.77;;
5549;SDS011;2798;42.716;23.256;2023-07-13T06:59:52;12.63;;;7.30;;
5549;SDS011;2798;42.716;23.256;2023-07-13T07:02:18;10.23;;;7.00;;
5549;SDS011;2798;42.716;23.256;2023-07-13T07:04:43;10.63;;;7.20;;
5549;SDS011;2798;42.716;23.256;2023-07-13T07:07:08;14.03;;;7.33;;
5549;SDS011;2798;42.716;23.256;2023-07-13T07:09:34;11.43;;;6.67;;
5549;SDS011;2798;42.716;23.256;2023-07-13T07:11:59;32.13;;;7.23;;
5549;SDS011;2798;42.716;23.256;2023-07-13T07:14:24;8.50;;;6.23;;
5549;SDS011;2798;42.716;23.256;2023-07-13T07:16:50;17.83;;;7.13;;
5549;SDS011;2798;42.716;23.256;2023-07-13T07:19:16;10.23;;;6.50;;
5549;SDS011;2798;42.716;23.256;2023-07-13T07:21:41;13.80;;;7.40;;
5549;SDS011;2798;42.716;23.256;2023-07-13T07:24:07;9.03;;;7.47;;
5549;SDS011;2798;42.716;23.256;2023-07-13T07:26:32;11.07;;;7.87;;
5549;SDS011;2798;42.716;23.256;2023-07-13T07:28:58;14.10;;;7.90;;
5549;SDS011;2798;42.716;23.256;2023-07-13T07:31:23;11.17;;;6.63;;
5549;SDS011;2798;42.716;23.256;2023-07-13T07:33:49;12.07;;;7.50;;
5549;SDS011;2798;42.716;23.256;2023-07-13T07:36:15;9.80;;;7.17;;
5549;SDS011;2798;42.716;23.256;2023-07-13T07:38:41;10.90;;;6.70;;
5549;SDS011;2798;42.716;23.256;2023-07-13T07:41:07;14.60;;;8.07;;
5549;SDS011;2798;42.716;23.256;2023-07-13T07:43:32;16.30;;;7.80;;
5549;SDS011;2798;42.716;23.256;2023-07-13T07:45:58;19.40;;;7.23;;
5549;SDS011;2798;42.716;23.256;2023-07-13T07:48:24;13.70;;;6.87;;
5549;SDS011;2798;42.716;23.256;2023-07-13T07:50:49;17.93;;;8.70;;
5549;SDS011;2798;42.716;23.256;2023-07-13T07:53:15;12.83;;;7.10;;
5549;SDS011;2798;42.716;23.256;2023-07-13T07:55:40;10.23;;;7.70;;
5549;SDS011;2798;42.716;23.256;2023-07-13T07:58:06;16.37;;;7.50;;
5549;SDS011;2798;42.716;23.256;2023-07-13T08:00:32;16.60;;;7.40;;
5549;SDS011;2798;42.716;23.256;2023-07-13T08:02:58;15.30;;;7.50;;
5549;SDS011;2798;42.716;23.256;2023-07-13T08:05:24;11.70;;;7.40;;
5549;SDS011;2798;42.716;23.256;2023-07-13T08:07:50;7.90;;;6.77;;
5549;SDS011;2798;42.716;23.256;2023-07-13T08:10:16;11.87;;;8.50;;
5549;SDS011;2798;42.716;23.256;2023-07-13T08:12:42;17.00;;;7.10;;
5549;SDS011;2798;42.716;23.256;2023-07-13T08:15:10;10.10;;;7.57;;
5549;SDS011;2798;42.716;23.256;2023-07-13T08:17:37;19.10;;;8.67;;
5549;SDS011;2798;42.716;23.256;2023-07-13T08:20:03;13.90;;;8.70;;
5549;SDS011;2798;42.716;23.256;2023-07-13T08:22:47;12.07;;;7.77;;
5549;SDS011;2798;42.716;23.256;2023-07-13T08:25:12;12.30;;;7.63;;
5549;SDS011;2798;42.716;23.256;2023-07-13T08:27:38;14.20;;;8.57;;
5549;SDS011;2798;42.716;23.256;2023-07-13T08:30:04;14.20;;;7.70;;
5549;SDS011;2798;42.716;23.256;2023-07-13T08:32:30;13.27;;;8.00;;
5549;SDS011;2798;42.716;23.256;2023-07-13T08:34:56;24.47;;;7.70;;
5549;SDS011;2798;42.716;23.256;2023-07-13T08:37:21;16.37;;;7.97;;
5549;SDS011;2798;42.716;23.256;2023-07-13T08:39:46;11.20;;;7.83;;
5549;SDS011;2798;42.716;23.256;2023-07-13T08:44:57;9.80;;;7.87;;
5549;SDS011;2798;42.716;23.256;2023-07-13T08:47:37;9.67;;;7.97;;
5549;SDS011;2798;42.716;23.256;2023-07-13T08:50:11;12.70;;;8.43;;
5549;SDS011;2798;42.716;23.256;2023-07-13T08:52:39;15.03;;;8.23;;
5549;SDS011;2798;42.716;23.256;2023-07-13T08:55:14;11.50;;;8.40;;
5549;SDS011;2798;42.716;23.256;2023-07-13T08:57:48;13.60;;;8.00;;
5549;SDS011;2798;42.716;23.256;2023-07-13T09:00:30;18.73;;;8.50;;
5549;SDS011;2798;42.716;23.256;2023-07-13T09:03:03;13.73;;;7.63;;
5549;SDS011;2798;42.716;23.256;2023-07-13T09:05:38;12.67;;;8.00;;
5549;SDS011;2798;42.716;23.256;2023-07-13T09:10:44;14.13;;;7.90;;
5549;SDS011;2798;42.716;23.256;2023-07-13T09:13:15;11.73;;;8.07;;
5549;SDS011;2798;42.716;23.256;2023-07-13T09:15:56;18.33;;;7.73;;
5549;SDS011;2798;42.716;23.256;2023-07-13T09:21:11;11.67;;;6.63;;
5549;SDS011;2798;42.716;23.256;2023-07-13T09:23:40;13.53;;;8.03;;
5549;SDS011;2798;42.716;23.256;2023-07-13T09:26:19;13.07;;;7.53;;
5549;SDS011;2798;42.716;23.256;2023-07-13T09:29:11;10.77;;;7.20;;
5549;SDS011;2798;42.716;23.256;2023-07-13T09:31:45;12.30;;;6.60;;
5549;SDS011;2798;42.716;23.256;2023-07-13T09:34:14;11.83;;;6.70;;
5549;SDS011;2798;42.716;23.256;2023-07-13T09:36:40;9.73;;;6.40;;
5549;SDS011;2798;42.716;23.256;2023-07-13T09:39:09;6.80;;;4.90;;
5549;SDS011;2798;42.716;23.256;2023-07-13T09:44:37;7.40;;;4.37;;
5549;SDS011;2798;42.716;23.256;2023-07-13T09:47:17;7.93;;;4.90;;
5549;SDS011;2798;42.716;23.256;2023-07-13T09:49:44;6.97;;;4.70;;
5549;SDS011;2798;42.716;23.256;2023-07-13T09:52:11;9.53;;;5.10;;
5549;SDS011;2798;42.716;23.256;2023-07-13T09:54:41;8.33;;;5.03;;
5549;SDS011;2798;42.716;23.256;2023-07-13T09:57:13;9.40;;;4.27;;
5549;SDS011;2798;42.716;23.256;2023-07-13T09:59:43;8.80;;;4.60;;
5549;SDS011;2798;42.716;23.256;2023-07-13T10:04:55;10.80;;;4.70;;
5549;SDS011;2798;42.716;23.256;2023-07-13T10:07:25;7.77;;;4.30;;
5549;SDS011;2798;42.716;23.256;2023-07-13T10:09:54;6.20;;;4.30;;
5549;SDS011;2798;42.716;23.256;2023-07-13T10:12:21;11.13;;;5.30;;
5549;SDS011;2798;42.716;23.256;2023-07-13T10:14:50;7.20;;;4.20;;
5549;SDS011;2798;42.716;23.256;2023-07-13T10:17:18;11.77;;;4.50;;
5549;SDS011;2798;42.716;23.256;2023-07-13T10:19:50;12.17;;;3.97;;
5549;SDS011;2798;42.716;23.256;2023-07-13T10:22:24;6.20;;;4.30;;
5549;SDS011;2798;42.716;23.256;2023-07-13T10:24:54;6.60;;;4.40;;
5549;SDS011;2798;42.716;23.256;2023-07-13T10:27:23;6.47;;;4.90;;
5549;SDS011;2798;42.716;23.256;2023-07-13T10:32:42;7.33;;;5.00;;
5549;SDS011;2798;42.716;23.256;2023-07-13T10:35:12;7.93;;;3.90;;
5549;SDS011;2798;42.716;23.256;2023-07-13T10:37:42;7.27;;;4.40;;
5549;SDS011;2798;42.716;23.256;2023-07-13T10:40:16;11.13;;;4.40;;
5549;SDS011;2798;42.716;23.256;2023-07-13T10:42:48;7.07;;;4.50;;
5549;SDS011;2798;42.716;23.256;2023-07-13T10:45:18;6.93;;;4.20;;
5549;SDS011;2798;42.716;23.256;2023-07-13T10:47:46;11.73;;;4.80;;
5549;SDS011;2798;42.716;23.256;2023-07-13T10:50:46;9.47;;;4.30;;
5549;SDS011;2798;42.716;23.256;2023-07-13T10:53:18;8.10;;;4.00;;
5549;SDS011;2798;42.716;23.256;2023-07-13T10:58:24;5.77;;;3.60;;
5549;SDS011;2798;42.716;23.256;2023-07-13T11:03:31;7.80;;;4.00;;
5549;SDS011;2798;42.716;23.256;2023-07-13T11:08:38;7.40;;;4.07;;
5549;SDS011;2798;42.716;23.256;2023-07-13T11:18:53;6.53;;;4.30;;
5549;SDS011;2798;42.716;23.256;2023-07-13T11:24:56;8.87;;;4.07;;
5549;SDS011;2798;42.716;23.256;2023-07-13T11:27:43;8.03;;;4.50;;
5549;SDS011;2798;42.716;23.256;2023-07-13T11:35:38;6.30;;;4.47;;
5549;SDS011;2798;42.716;23.256;2023-07-13T11:38:14;12.30;;;4.33;;
5549;SDS011;2798;42.716;23.256;2023-07-13T11:40:44;8.03;;;4.10;;
5549;SDS011;2798;42.716;23.256;2023-07-13T11:43:14;5.63;;;3.87;;
5549;SDS011;2798;42.716;23.256;2023-07-13T11:45:40;6.50;;;4.30;;
5549;SDS011;2798;42.716;23.256;2023-07-13T11:48:17;6.82;;;4.88;;
5549;SDS011;2798;42.716;23.256;2023-07-13T11:51:05;6.97;;;4.45;;
5549;SDS011;2798;42.716;23.256;2023-07-13T11:53:37;7.23;;;4.27;;
5549;SDS011;2798;42.716;23.256;2023-07-13T11:56:10;12.20;;;4.05;;
5549;SDS011;2798;42.716;23.256;2023-07-13T11:58:36;10.55;;;4.28;;
5549;SDS011;2798;42.716;23.256;2023-07-13T12:01:02;7.22;;;4.32;;
5549;SDS011;2798;42.716;23.256;2023-07-13T12:03:32;10.95;;;4.53;;
5549;SDS011;2798;42.716;23.256;2023-07-13T12:06:00;11.52;;;4.53;;
5549;SDS011;2798;42.716;23.256;2023-07-13T12:08:31;5.80;;;3.80;;
5549;SDS011;2798;42.716;23.256;2023-07-13T12:11:02;6.85;;;4.22;;
5549;SDS011;2798;42.716;23.256;2023-07-13T12:13:34;6.03;;;4.18;;
5549;SDS011;2798;42.716;23.256;2023-07-13T12:16:01;4.55;;;3.95;;
5549;SDS011;2798;42.716;23.256;2023-07-13T12:18:29;11.68;;;4.78;;
5549;SDS011;2798;42.716;23.256;2023-07-13T12:20:57;10.93;;;4.07;;
5549;SDS011;2798;42.716;23.256;2023-07-13T12:25:52;17.92;;;4.40;;
5549;SDS011;2798;42.716;23.256;2023-07-13T12:28:38;8.75;;;4.20;;
5549;SDS011;2798;42.716;23.256;2023-07-13T12:34:10;7.80;;;3.88;;
5549;SDS011;2798;42.716;23.256;2023-07-13T12:36:37;7.40;;;4.13;;
5549;SDS011;2798;42.716;23.256;2023-07-13T12:41:48;7.30;;;4.43;;
5549;SDS011;2798;42.716;23.256;2023-07-13T12:44:17;9.02;;;4.03;;
5549;SDS011;2798;42.716;23.256;2023-07-13T12:46:56;11.38;;;4.22;;
5549;SDS011;2798;42.716;23.256;2023-07-13T12:49:26;9.88;;;3.70;;
5549;SDS011;2798;42.716;23.256;2023-07-13T12:51:56;8.45;;;4.43;;
5549;SDS011;2798;42.716;23.256;2023-07-13T12:54:24;4.88;;;3.72;;
5549;SDS011;2798;42.716;23.256;2023-07-13T12:56:50;7.50;;;3.80;;
5549;SDS011;2798;42.716;23.256;2023-07-13T12:59:19;7.68;;;3.60;;
5549;SDS011;2798;42.716;23.256;2023-07-13T13:01:47;8.40;;;4.05;;
5549;SDS011;2798;42.716;23.256;2023-07-13T13:04:14;9.07;;;4.07;;
5549;SDS011;2798;42.716;23.256;2023-07-13T13:06:41;10.73;;;3.53;;
5549;SDS011;2798;42.716;23.256;2023-07-13T13:09:12;10.32;;;4.03;;
5549;SDS011;2798;42.716;23.256;2023-07-13T13:11:39;10.75;;;4.18;;
5549;SDS011;2798;42.716;23.256;2023-07-13T13:14:05;12.60;;;4.80;;
5549;SDS011;2798;42.716;23.256;2023-07-13T13:16:32;9.80;;;3.83;;
5549;SDS011;2798;42.716;23.256;2023-07-13T13:19:01;7.68;;;4.05;;
5549;SDS011;2798;42.716;23.256;2023-07-13T13:21:38;9.07;;;3.90;;
5549;SDS011;2798;42.716;23.256;2023-07-13T13:24:08;23.10;;;4.35;;
5549;SDS011;2798;42.716;23.256;2023-07-13T13:26:36;7.38;;;3.80;;
5549;SDS011;2798;42.716;23.256;2023-07-13T13:29:04;10.32;;;4.20;;
5549;SDS011;2798;42.716;23.256;2023-07-13T13:31:44;8.15;;;3.55;;
5549;SDS011;2798;42.716;23.256;2023-07-13T13:34:13;14.35;;;4.18;;
5549;SDS011;2798;42.716;23.256;2023-07-13T13:36:41;11.05;;;3.67;;
5549;SDS011;2798;42.716;23.256;2023-07-13T13:39:20;11.13;;;3.97;;
5549;SDS011;2798;42.716;23.256;2023-07-13T13:41:46;8.82;;;4.10;;
5549;SDS011;2798;42.716;23.256;2023-07-13T13:44:14;5.68;;;3.60;;
5549;SDS011;2798;42.716;23.256;2023-07-13T13:46:43;5.28;;;3.80;;
5549;SDS011;2798;42.716;23.256;2023-07-13T13:49:15;10.38;;;3.88;;
5549;SDS011;2798;42.716;23.256;2023-07-13T13:51:44;8.68;;;3.58;;
5549;SDS011;2798;42.716;23.256;2023-07-13T13:54:13;7.88;;;4.20;;
5549;SDS011;2798;42.716;23.256;2023-07-13T13:56:43;11.68;;;3.97;;
5549;SDS011;2798;42.716;23.256;2023-07-13T13:59:11;7.05;;;3.00;;
5549;SDS011;2798;42.716;23.256;2023-07-13T14:01:37;4.63;;;3.83;;
5549;SDS011;2798;42.716;23.256;2023-07-13T14:04:04;7.55;;;3.83;;
5549;SDS011;2798;42.716;23.256;2023-07-13T14:06:31;6.63;;;4.47;;
5549;SDS011;2798;42.716;23.256;2023-07-13T14:08:59;10.68;;;4.32;;
5549;SDS011;2798;42.716;23.256;2023-07-13T14:11:26;7.25;;;3.72;;
5549;SDS011;2798;42.716;23.256;2023-07-13T14:13:55;5.63;;;3.55;;
5549;SDS011;2798;42.716;23.256;2023-07-13T14:16:25;5.47;;;3.63;;
5549;SDS011;2798;42.716;23.256;2023-07-13T14:18:54;8.98;;;4.25;;
5549;SDS011;2798;42.716;23.256;2023-07-13T14:21:23;7.43;;;4.65;;
5549;SDS011;2798;42.716;23.256;2023-07-13T14:23:49;7.55;;;4.03;;
5549;SDS011;2798;42.716;23.256;2023-07-13T14:26:19;11.07;;;3.42;;
5549;SDS011;2798;42.716;23.256;2023-07-13T14:28:51;9.30;;;4.40;;
5549;SDS011;2798;42.716;23.256;2023-07-13T14:31:19;7.38;;;4.35;;
5549;SDS011;2798;42.716;23.256;2023-07-13T14:33:44;6.47;;;4.00;;
5549;SDS011;2798;42.716;23.256;2023-07-13T14:39:16;7.35;;;4.40;;
5549;SDS011;2798;42.716;23.256;2023-07-13T14:41:44;6.20;;;3.88;;
5549;SDS011;2798;42.716;23.256;2023-07-13T14:44:11;5.93;;;3.85;;
5549;SDS011;2798;42.716;23.256;2023-07-13T14:46:40;8.27;;;3.60;;
5549;SDS011;2798;42.716;23.256;2023-07-13T14:49:28;8.15;;;5.00;;
5549;SDS011;2798;42.716;23.256;2023-07-13T14:51:57;8.40;;;3.50;;
5549;SDS011;2798;42.716;23.256;2023-07-13T14:54:24;8.43;;;3.97;;
5549;SDS011;2798;42.716;23.256;2023-07-13T14:56:49;6.22;;;4.30;;
5549;SDS011;2798;42.716;23.256;2023-07-13T14:59:16;11.82;;;3.75;;
5549;SDS011;2798;42.716;23.256;2023-07-13T15:01:44;8.00;;;3.97;;
5549;SDS011;2798;42.716;23.256;2023-07-13T15:04:10;14.85;;;4.35;;
5549;SDS011;2798;42.716;23.256;2023-07-13T15:09:29;6.13;;;3.60;;
5549;SDS011;2798;42.716;23.256;2023-07-13T15:11:55;8.00;;;3.60;;
5549;SDS011;2798;42.716;23.256;2023-07-13T15:14:21;3.80;;;3.40;;
5549;SDS011;2798;42.716;23.256;2023-07-13T15:16:49;6.00;;;3.83;;
5549;SDS011;2798;42.716;23.256;2023-07-13T15:19:17;10.15;;;4.15;;
5549;SDS011;2798;42.716;23.256;2023-07-13T15:21:43;7.50;;;4.00;;
5549;SDS011;2798;42.716;23.256;2023-07-13T15:24:09;7.22;;;3.75;;
5549;SDS011;2798;42.716;23.256;2023-07-13T15:26:35;9.48;;;4.30;;
5549;SDS011;2798;42.716;23.256;2023-07-13T15:29:01;11.93;;;4.43;;
5549;SDS011;2798;42.716;23.256;2023-07-13T15:31:28;6.40;;;3.58;;
5549;SDS011;2798;42.716;23.256;2023-07-13T15:33:55;8.73;;;4.72;;
5549;SDS011;2798;42.716;23.256;2023-07-13T15:36:22;4.88;;;3.60;;
5549;SDS011;2798;42.716;23.256;2023-07-13T15:38:51;8.27;;;4.85;;
5549;SDS011;2798;42.716;23.256;2023-07-13T15:41:22;7.45;;;3.80;;
5549;SDS011;2798;42.716;23.256;2023-07-13T15:43:50;12.60;;;3.97;;
5549;SDS011;2798;42.716;23.256;2023-07-13T15:46:19;11.77;;;4.07;;
5549;SDS011;2798;42.716;23.256;2023-07-13T15:48:49;5.22;;;4.47;;
5549;SDS011;2798;42.716;23.256;2023-07-13T15:51:28;7.22;;;3.75;;
5549;SDS011;2798;42.716;23.256;2023-07-13T15:53:59;5.57;;;4.10;;
5549;SDS011;2798;42.716;23.256;2023-07-13T15:56:29;18.90;;;5.03;;
5549;SDS011;2798;42.716;23.256;2023-07-13T15:58:58;8.25;;;4.40;;